Chipman Lake, Vermont
Current Conditions -  °F | °C
As of 3:15 AM on Thursday 18 Dec 2014 (Local Time) from KRUT Reporting Station
Broken Clouds Broken Clouds  
Wind Chill: 28°   Ceiling: 3300
Heat Index: 34°   Visibility: 9mi
Dew Point: 30°   Wind: 7mph
Humidity: 87%   Direction: 260°W
Pressure: 29.74"   Gusts: NA
Location:  43.3492°N, 72.9643°W
Report Text: KRUT 180815Z 26006KT 9SM FEW020 SCT027 BKN033 01/M01 A2974 RMK AO1
Loading
Personal Weather Stations






























Interactive Weather Map New forecast layout! Learn more

10-Day Weather Forecast

Advertisements
Track Severe Weather on mobile